Time;durP1;ratioP1;P1;durP2;ratioP2;P2;SDS_P1;SDS_P2;PMS_P1;PMS_P2;Temp;Humidity;BMP_temperature;BMP_pressure;BME280_temperature;BME280_humidity;BME280_pressure;Samples;Min_cycle;Max_cycle;Signal;HPM_P1;HPM_P2
2023/09/08 00:04:37;;;;;;;;;;;;;;;20.68;56.77;99971.28;10456080;27;848;-68
2023/09/08 00:09:33;;;;;;;;;;;;;;;20.61;56.67;99973.38;10457049;27;864;-68
2023/09/08 00:14:29;;;;;;;;;;;;;;;20.61;56.49;99965.44;10456547;27;779;-68
2023/09/08 00:19:25;;;;;;;;;;;;;;;20.59;56.57;99962.00;10456609;27;1955;-68
2023/09/08 00:24:21;;;;;;;;;;;;;;;20.55;56.58;99956.00;10455882;27;768;-68
2023/09/08 00:29:17;;;;;;;;;;;;;;;20.55;56.32;99960.44;10455800;27;1240;-68
2023/09/08 00:34:13;;;;;;;;;;;;;;;20.50;56.30;99955.34;10454907;27;805;-68
2023/09/08 00:39:09;;;;;;;;;;;;;;;20.46;56.15;99968.81;10455806;27;1914;-68
2023/09/08 00:44:05;;;;;;;;;;;;;;;20.44;55.91;99963.63;10455107;27;818;-68
2023/09/08 00:49:00;;;;;;;;;;;;;;;20.44;55.79;99960.13;10454901;27;772;-68
2023/09/08 00:53:56;;;;;;;;;;;;;;;20.41;55.94;99966.44;10454727;27;932;-68
2023/09/08 00:58:52;;;;;;;;;;;;;;;20.40;56.06;99956.75;10454449;27;1957;-68
2023/09/08 01:03:48;;;;;;;;;;;;;;;20.40;56.20;99956.75;10454323;27;856;-68
2023/09/08 01:08:44;;;;;;;;;;;;;;;20.38;56.01;99952.47;10454910;27;891;-68
2023/09/08 01:13:40;;;;;;;;;;;;;;;20.37;55.96;99948.97;10453939;27;851;-68
2023/09/08 01:18:36;;;;;;;;;;;;;;;20.36;55.95;99947.28;10454278;27;1969;-68
2023/09/08 01:23:32;;;;;;;;;;;;;;;20.33;56.06;99955.34;10453605;27;829;-68
2023/09/08 01:28:27;;;;;;;;;;;;;;;20.34;55.99;99952.63;10454201;27;1227;-68
2023/09/08 01:33:23;;;;;;;;;;;;;;;20.33;56.01;99953.59;10453132;27;877;-68
2023/09/08 01:38:19;;;;;;;;;;;;;;;20.30;55.95;99958.16;10452907;27;1913;-68
2023/09/08 01:43:15;;;;;;;;;;;;;;;20.26;55.91;99944.22;10452031;27;908;-68
2023/09/08 01:48:11;;;;;;;;;;;;;;;20.25;56.00;99950.47;10452561;27;794;-68
2023/09/08 01:53:07;;;;;;;;;;;;;;;20.24;55.79;99942.59;10452962;27;841;-68
2023/09/08 01:58:03;;;;;;;;;;;;;;;20.21;55.81;99950.69;10452691;27;1897;-68
2023/09/08 02:02:58;;;;;;;;;;;;;;;20.19;55.71;99956.03;10452698;27;859;-68
2023/09/08 02:07:56;;;;;;;;;;;;;;;20.16;55.86;99948.25;10452350;27;975;-68
2023/09/08 02:12:52;;;;;;;;;;;;;;;20.14;55.47;99943.03;10451509;27;1047;-68
2023/09/08 02:17:48;;;;;;;;;;;;;;;20.11;55.52;99939.69;10451833;27;1955;-68
2023/09/08 02:22:44;;;;;;;;;;;;;;;20.11;55.64;99937.06;10451200;27;768;-68
2023/09/08 02:27:40;;;;;;;;;;;;;;;20.09;55.53;99937.13;10452186;27;1383;-69
2023/09/08 02:32:36;;;;;;;;;;;;;;;20.07;55.62;99930.22;10451777;27;853;-68
2023/09/08 02:37:31;;;;;;;;;;;;;;;20.04;55.71;99933.00;10451608;27;1910;-68
2023/09/08 02:42:27;;;;;;;;;;;;;;;20.02;55.26;99940.16;10450541;27;778;-68
2023/09/08 02:47:23;;;;;;;;;;;;;;;19.99;55.24;99932.34;10451177;27;825;-68
2023/09/08 02:52:19;;;;;;;;;;;;;;;20.00;55.30;99928.78;10450932;27;895;-68
2023/09/08 02:57:15;;;;;;;;;;;;;;;19.99;55.45;99929.72;10450193;27;1893;-68
2023/09/08 03:02:11;;;;;;;;;;;;;;;19.98;55.45;99930.66;10451143;27;916;-68
2023/09/08 03:07:07;;;;;;;;;;;;;;;19.98;55.30;99930.66;10451033;27;955;-68
2023/09/08 03:12:03;;;;;;;;;;;;;;;20.00;55.31;99932.28;10449801;27;809;-68
2023/09/08 03:16:59;;;;;;;;;;;;;;;20.00;55.30;99934.09;10450283;28;1898;-68
2023/09/08 03:21:55;;;;;;;;;;;;;;;20.01;55.36;99935.78;10449769;28;845;-68
2023/09/08 03:26:51;;;;;;;;;;;;;;;19.98;55.28;99925.38;10448842;28;1256;-68
2023/09/08 03:31:47;;;;;;;;;;;;;;;19.98;55.29;99920.06;10449887;28;1308;-68
2023/09/08 03:36:42;;;;;;;;;;;;;;;19.98;55.48;99915.63;10449196;28;1973;-68
2023/09/08 03:41:39;;;;;;;;;;;;;;;19.96;55.33;99914.84;10449163;28;943;-68
2023/09/08 03:46:34;;;;;;;;;;;;;;;19.92;55.30;99922.09;10449101;28;757;-68
2023/09/08 03:51:30;;;;;;;;;;;;;;;19.90;55.29;99917.81;10448911;28;878;-68
2023/09/08 03:56:26;;;;;;;;;;;;;;;19.85;55.06;99918.03;10448821;28;1894;-68
2023/09/08 04:01:22;;;;;;;;;;;;;;;19.83;55.05;99919.91;10448761;28;889;-68
2023/09/08 04:06:18;;;;;;;;;;;;;;;19.81;55.21;99921.78;10453154;27;876;-68
2023/09/08 04:11:14;;;;;;;;;;;;;;;19.77;55.17;99930.78;10456494;27;754;-68
2023/09/08 04:16:10;;;;;;;;;;;;;;;19.75;54.94;99932.63;10456198;27;1894;-68
2023/09/08 04:21:06;;;;;;;;;;;;;;;19.73;55.01;99931.00;10456072;27;772;-68
2023/09/08 04:26:01;;;;;;;;;;;;;;;19.75;54.87;99934.41;10456059;27;845;-68
2023/09/08 04:30:59;;;;;;;;;;;;;;;19.75;55.06;99934.41;10455897;27;1370;-69
2023/09/08 04:35:54;;;;;;;;;;;;;;;18.12;58.86;99931.97;10455447;27;860;-68
2023/09/08 04:40:50;;;;;;;;;;;;;;;19.22;56.29;99934.22;10450728;27;1910;-69
2023/09/08 04:45:46;;;;;;;;;;;;;;;19.52;55.54;99938.13;10411720;28;900;-69
2023/09/08 04:50:42;;;;;;;;;;;;;;;19.42;55.69;99943.88;10413048;28;872;-69
2023/09/08 04:55:38;;;;;;;;;;;;;;;19.61;55.34;99946.50;10413577;28;832;-68
2023/09/08 05:00:34;;;;;;;;;;;;;;;19.52;55.39;99951.34;10412627;28;1889;-68
2023/09/08 05:05:30;;;;;;;;;;;;;;;18.95;56.32;99951.34;10412266;28;852;-68
2023/09/08 05:10:25;;;;;;;;;;;;;;;17.79;59.25;99943.84;10412395;28;872;-68
2023/09/08 05:15:21;;;;;;;;;;;;;;;17.41;60.35;99941.81;10412303;28;757;-68
2023/09/08 05:20:17;;;;;;;;;;;;;;;17.43;60.39;99945.25;10411735;28;1898;-68
2023/09/08 05:25:13;;;;;;;;;;;;;;;17.45;60.23;99945.22;10411132;28;879;-68
2023/09/08 05:30:09;;;;;;;;;;;;;;;17.47;60.09;99940.72;10411045;28;1272;-69
2023/09/08 05:35:05;;;;;;;;;;;;;;;17.29;60.63;99945.81;10411353;28;944;-68
2023/09/08 05:40:01;;;;;;;;;;;;;;;17.48;60.23;99934.56;10411097;28;1941;-68
2023/09/08 05:44:57;;;;;;;;;;;;;;;17.52;60.32;99936.97;10410829;28;762;-69
2023/09/08 05:49:54;;;;;;;;;;;;;;;17.67;60.10;99940.81;10410094;28;2009;-68
2023/09/08 05:54:50;;;;;;;;;;;;;;;17.27;62.10;99946.78;10411190;28;991;-71
2023/09/08 05:59:45;;;;;;;;;;;;;;;17.46;61.79;99950.41;10409970;28;1979;-68
2023/09/08 06:04:41;;;;;;;;;;;;;;;17.51;61.88;99944.97;10409440;28;944;-68
2023/09/08 06:09:37;;;;;;;;;;;;;;;17.48;62.42;99950.38;10410452;28;963;-68
2023/09/08 06:14:33;;;;;;;;;;;;;;;18.03;60.91;99953.47;10409722;28;879;-70
2023/09/08 06:19:29;;;;;;;;;;;;;;;18.80;58.25;99944.94;10409469;28;1894;-68
2023/09/08 06:24:25;;;;;;;;;;;;;;;18.93;58.07;99947.91;10409985;28;838;-68
2023/09/08 06:29:21;;;;;;;;;;;;;;;18.50;60.41;99955.91;10408892;28;1107;-68
2023/09/08 06:34:20;;;;;;;;;;;;;;;18.50;60.84;99947.13;10408899;28;944;-69
2023/09/08 06:39:16;;;;;;;;;;;;;;;18.93;59.55;99946.09;10408719;28;1981;-69
2023/09/08 06:44:12;;;;;;;;;;;;;;;19.13;59.08;99941.72;10408675;28;960;-69
2023/09/08 06:49:08;;;;;;;;;;;;;;;19.03;60.17;99941.28;10408598;28;971;-69
2023/09/08 06:54:04;;;;;;;;;;;;;;;18.87;63.44;99949.03;10409063;28;768;-68
2023/09/08 06:59:00;;;;;;;;;;;;;;;19.09;62.39;99940.13;10408463;28;1960;-69
2023/09/08 07:03:56;;;;;;;;;;;;;;;19.39;60.55;99951.94;10408122;28;862;-68
2023/09/08 07:08:51;;;;;;;;;;;;;;;19.58;59.69;99964.31;10408076;28;869;-68
2023/09/08 07:13:47;;;;;;;;;;;;;;;19.66;59.25;99960.38;10407923;28;876;-67
2023/09/08 07:18:43;;;;;;;;;;;;;;;19.70;59.24;99955.78;10407829;28;1886;-68
2023/09/08 07:23:39;;;;;;;;;;;;;;;19.74;59.15;99956.53;10405348;28;1170;-68
2023/09/08 07:28:35;;;;;;;;;;;;;;;19.75;59.02;99959.06;10405694;28;1404;-68
2023/09/08 07:33:31;;;;;;;;;;;;;;;19.78;58.71;99955.44;10407720;28;726;-68
2023/09/08 07:38:27;;;;;;;;;;;;;;;19.80;58.83;99949.13;10406862;28;1914;-68
2023/09/08 07:43:23;;;;;;;;;;;;;;;19.82;58.74;99949.91;10415613;28;1007;-67
2023/09/08 07:48:18;;;;;;;;;;;;;;;19.84;58.76;99957.78;10416025;28;941;-68
2023/09/08 07:53:14;;;;;;;;;;;;;;;19.89;58.79;99954.00;10415986;28;884;-68
2023/09/08 07:58:10;;;;;;;;;;;;;;;19.91;58.55;99945.97;10415759;28;1973;-69
2023/09/08 08:03:06;;;;;;;;;;;;;;;19.93;58.50;99952.03;10414412;28;864;-68
2023/09/08 08:08:02;;;;;;;;;;;;;;;19.93;58.55;99947.59;10415556;28;867;-68
2023/09/08 08:12:58;;;;;;;;;;;;;;;19.93;58.47;99942.31;10414575;28;801;-68
2023/09/08 08:17:54;;;;;;;;;;;;;;;19.96;58.58;99941.31;10413685;28;1894;-68
2023/09/08 08:22:50;;;;;;;;;;;;;;;19.99;58.45;99942.94;10414278;28;901;-68
2023/09/08 08:27:46;;;;;;;;;;;;;;;20.00;58.58;99950.81;10414448;28;1191;-69
2023/09/08 08:32:41;;;;;;;;;;;;;;;20.01;58.80;99939.28;10413875;28;801;-69
2023/09/08 08:37:37;;;;;;;;;;;;;;;20.03;58.99;99940.06;10414434;28;1967;-68
2023/09/08 08:42:33;;;;;;;;;;;;;;;20.03;58.95;99941.88;10413230;28;885;-70
2023/09/08 08:47:30;;;;;;;;;;;;;;;20.05;58.73;99932.06;10413288;28;833;-69
2023/09/08 08:52:25;;;;;;;;;;;;;;;20.08;58.59;99942.50;10412875;28;855;-68
2023/09/08 08:57:21;;;;;;;;;;;;;;;20.12;58.60;99939.63;10413292;28;1952;-70
2023/09/08 09:02:17;;;;;;;;;;;;;;;20.17;58.83;99931.44;10412625;28;1649;-69
2023/09/08 09:07:13;;;;;;;;;;;;;;;20.16;58.75;99931.53;10412487;28;920;-69
2023/09/08 09:12:09;;;;;;;;;;;;;;;20.13;58.81;99930.75;10412300;28;959;-70
2023/09/08 09:17:05;;;;;;;;;;;;;;;20.13;58.65;99925.47;10411939;28;1894;-69
2023/09/08 09:22:03;;;;;;;;;;;;;;;20.16;59.04;99923.59;10411862;28;877;-70
2023/09/08 09:26:58;;;;;;;;;;;;;;;20.17;58.64;99926.16;10412405;28;954;-68
2023/09/08 09:31:54;;;;;;;;;;;;;;;20.19;58.85;99920.78;10412439;28;1438;-69
2023/09/08 09:36:50;;;;;;;;;;;;;;;20.19;59.07;99920.78;10410564;28;1965;-69
2023/09/08 09:41:46;;;;;;;;;;;;;;;20.18;58.71;99916.44;10411810;28;1206;-69
2023/09/08 09:46:42;;;;;;;;;;;;;;;20.19;58.57;99912.84;10410885;28;789;-69
2023/09/08 09:51:39;;;;;;;;;;;;;;;20.17;58.48;99915.56;10410730;28;968;-69
2023/09/08 09:56:35;;;;;;;;;;;;;;;20.18;58.41;99909.34;10410394;28;1889;-71
2023/09/08 10:01:31;;;;;;;;;;;;;;;20.20;58.60;99910.13;10410432;28;928;-69
2023/09/08 10:06:27;;;;;;;;;;;;;;;20.21;58.66;99909.19;10409047;28;845;-74
2023/09/08 10:11:23;;;;;;;;;;;;;;;20.23;58.53;99907.34;10410482;28;869;-71
2023/09/08 10:16:18;;;;;;;;;;;;;;;20.23;58.80;99912.63;10409630;28;1944;-71
2023/09/08 10:21:14;;;;;;;;;;;;;;;20.23;58.78;99909.13;10409852;28;927;-68
2023/09/08 10:26:10;;;;;;;;;;;;;;;20.23;58.58;99898.53;10409399;28;829;-69
2023/09/08 10:31:06;;;;;;;;;;;;;;;20.22;58.53;99904.75;10408431;28;1396;-69
2023/09/08 10:36:03;;;;;;;;;;;;;;;20.22;58.46;99902.94;10409326;28;820;-69
2023/09/08 10:40:59;;;;;;;;;;;;;;;20.23;58.56;99903.84;10409410;28;1988;-69
2023/09/08 10:45:55;;;;;;;;;;;;;;;20.21;58.62;99898.59;10408112;28;784;-68
2023/09/08 10:50:50;;;;;;;;;;;;;;;20.23;58.54;99899.38;10409574;28;959;-69
2023/09/08 10:55:53;;;;;;;;;;;;;;;20.25;58.39;99909.88;10408520;28;955;-72
2023/09/08 11:00:49;;;;;;;;;;;;;;;20.27;58.26;99905.38;10408090;28;1957;-68
2023/09/08 11:05:45;;;;;;;;;;;;;;;20.25;58.55;99900.19;10408802;28;786;-68
2023/09/08 11:10:41;;;;;;;;;;;;;;;20.27;58.71;99900.06;10408021;28;897;-69
2023/09/08 11:15:36;;;;;;;;;;;;;;;20.27;59.11;99897.44;10406985;28;845;-69
2023/09/08 11:20:32;;;;;;;;;;;;;;;20.27;59.59;99894.78;10408253;28;1898;-70
2023/09/08 11:25:29;;;;;;;;;;;;;;;20.28;59.32;99900.00;10407633;28;874;-70
2023/09/08 11:30:25;;;;;;;;;;;;;;;20.29;59.44;99892.91;10408358;28;1098;-70
2023/09/08 11:35:21;;;;;;;;;;;;;;;20.29;59.76;99883.19;10407754;28;921;-70
2023/09/08 11:40:19;;;;;;;;;;;;;;;20.26;59.65;99887.78;10407923;28;1913;-69
2023/09/08 11:45:17;;;;;;;;;;;;;;;20.24;59.72;99879.91;10407627;28;977;-70
2023/09/08 11:50:17;;;;;;;;;;;;;;;20.23;59.86;99875.56;10407210;28;901;-69
2023/09/08 11:55:13;;;;;;;;;;;;;;;20.24;59.81;99877.25;10407503;28;848;-70
2023/09/08 12:00:10;;;;;;;;;;;;;;;20.23;59.76;99875.56;10406931;28;1913;-69
2023/09/08 12:05:06;;;;;;;;;;;;;;;20.23;59.87;99872.91;10406331;28;1188;-69
2023/09/08 12:10:03;;;;;;;;;;;;;;;20.25;60.12;99880.75;10406906;28;772;-67
2023/09/08 12:14:59;;;;;;;;;;;;;;;20.25;59.93;99873.72;10407410;28;928;-67
2023/09/08 12:19:55;;;;;;;;;;;;;;;20.24;59.87;99866.69;10406773;28;1905;-67
2023/09/08 12:24:51;;;;;;;;;;;;;;;20.25;59.93;99868.41;10407142;28;814;-67
2023/09/08 12:29:47;;;;;;;;;;;;;;;20.25;59.92;99859.59;10414093;28;1267;-69
2023/09/08 12:34:43;;;;;;;;;;;;;;;20.26;60.33;99861.31;10415094;28;900;-68
2023/09/08 12:39:39;;;;;;;;;;;;;;;20.27;59.93;99855.94;10413591;28;1977;-69
2023/09/08 12:44:34;;;;;;;;;;;;;;;20.28;59.69;99848.88;10414109;28;780;-68
2023/09/08 12:49:30;;;;;;;;;;;;;;;20.30;60.15;99852.25;10413253;28;778;-68
2023/09/08 12:54:26;;;;;;;;;;;;;;;20.28;59.91;99844.44;10413042;28;1002;-68
2023/09/08 12:59:22;;;;;;;;;;;;;;;20.28;60.24;99849.72;10412637;28;1898;-68
2023/09/08 13:04:18;;;;;;;;;;;;;;;20.29;60.45;99840.81;10412656;28;858;-68
2023/09/08 13:09:14;;;;;;;;;;;;;;;20.30;60.38;99847.84;10413117;28;849;-68
2023/09/08 13:14:10;;;;;;;;;;;;;;;20.30;60.44;99831.97;10412304;28;945;-68
2023/09/08 13:19:06;;;;;;;;;;;;;;;20.31;60.40;99833.66;10411946;28;1898;-68
2023/09/08 13:24:03;;;;;;;;;;;;;;;20.33;60.64;99833.56;10412127;28;936;-68
2023/09/08 13:28:59;;;;;;;;;;;;;;;20.33;60.41;99836.22;10411599;28;1292;-68
2023/09/08 13:33:55;;;;;;;;;;;;;;;20.34;60.47;99836.16;10412375;28;853;-68
2023/09/08 13:38:51;;;;;;;;;;;;;;;20.35;60.38;99821.13;10410552;28;1914;-68
2023/09/08 13:43:47;;;;;;;;;;;;;;;20.35;60.52;99827.25;10411104;28;743;-68
2023/09/08 13:48:43;;;;;;;;;;;;;;;20.36;60.58;99825.50;10410958;28;870;-67
2023/09/08 13:53:39;;;;;;;;;;;;;;;20.39;60.32;99819.19;10411171;28;862;-66
2023/09/08 13:58:35;;;;;;;;;;;;;;;20.41;60.24;99817.28;10409835;28;1956;-68
2023/09/08 14:03:31;;;;;;;;;;;;;;;20.41;60.11;99812.88;10410309;28;856;-67
2023/09/08 14:08:26;;;;;;;;;;;;;;;20.42;60.63;99819.88;10410068;28;865;-69
2023/09/08 14:13:22;;;;;;;;;;;;;;;20.43;60.25;99820.72;10409896;28;874;-71
2023/09/08 14:18:18;;;;;;;;;;;;;;;20.43;60.67;99810.13;10409621;28;1901;-69
2023/09/08 14:23:14;;;;;;;;;;;;;;;20.44;60.81;99811.84;10410227;28;821;-69
2023/09/08 14:28:10;;;;;;;;;;;;;;;20.45;61.08;99809.09;10408860;28;1167;-69
2023/09/08 14:33:06;;;;;;;;;;;;;;;20.46;61.17;99800.25;10410093;28;955;-69
2023/09/08 14:38:02;;;;;;;;;;;;;;;20.47;61.15;99803.75;10409537;28;1989;-69
2023/09/08 14:42:58;;;;;;;;;;;;;;;20.49;61.03;99799.22;10409418;28;861;-69
2023/09/08 14:47:54;;;;;;;;;;;;;;;20.49;61.14;99797.44;10408420;28;927;-69
2023/09/08 14:52:50;;;;;;;;;;;;;;;20.51;61.01;99799.97;10408559;28;889;-69
2023/09/08 14:57:46;;;;;;;;;;;;;;;20.52;61.10;99804.34;10408551;28;1889;-69
2023/09/08 15:02:42;;;;;;;;;;;;;;;20.54;61.04;99805.13;10409297;28;844;-69
2023/09/08 15:07:38;;;;;;;;;;;;;;;20.55;60.87;99804.22;10408140;28;924;-69
2023/09/08 15:12:33;;;;;;;;;;;;;;;20.56;60.77;99806.75;10408629;28;946;-69
2023/09/08 15:17:29;;;;;;;;;;;;;;;20.57;60.74;99803.19;10407723;28;1894;-69
2023/09/08 15:22:25;;;;;;;;;;;;;;;20.58;60.76;99804.03;10408588;28;833;-69
2023/09/08 15:27:21;;;;;;;;;;;;;;;20.60;60.68;99802.19;10408322;28;944;-69
2023/09/08 15:32:17;;;;;;;;;;;;;;;20.60;60.82;99786.28;10407487;28;1282;-69
2023/09/08 15:37:13;;;;;;;;;;;;;;;20.61;60.51;99787.97;10408032;28;1918;-69
2023/09/08 15:42:09;;;;;;;;;;;;;;;20.63;60.50;99786.13;10408044;28;794;-69
2023/09/08 15:47:05;;;;;;;;;;;;;;;20.64;60.49;99776.38;10407679;28;858;-69
2023/09/08 15:52:01;;;;;;;;;;;;;;;20.65;60.56;99776.28;10389029;28;987;-69
2023/09/08 15:56:56;;;;;;;;;;;;;;;20.64;60.57;99773.72;10407128;28;1960;-69
2023/09/08 16:01:52;;;;;;;;;;;;;;;20.66;60.57;99779.78;10410291;28;855;-69
2023/09/08 16:06:48;;;;;;;;;;;;;;;20.68;60.54;99783.22;10415005;28;773;-69
2023/09/08 16:11:46;;;;;;;;;;;;;;;20.69;60.58;99779.63;10414868;28;905;-69
2023/09/08 16:16:43;;;;;;;;;;;;;;;20.69;60.41;99779.63;10415057;28;1951;-69
2023/09/08 16:21:41;;;;;;;;;;;;;;;20.70;60.37;99787.50;10415302;28;838;-69
2023/09/08 16:26:37;;;;;;;;;;;;;;;20.70;60.30;99779.56;10415054;28;801;-69
2023/09/08 16:31:33;;;;;;;;;;;;;;;20.71;60.41;99777.75;10414366;28;1147;-69
2023/09/08 16:36:29;;;;;;;;;;;;;;;20.72;60.46;99774.16;10413731;28;1963;-69
2023/09/08 16:41:25;;;;;;;;;;;;;;;20.73;60.36;99782.03;10413675;28;942;-69
2023/09/08 16:46:21;;;;;;;;;;;;;;;20.74;60.24;99781.06;10413330;28;940;-69
2023/09/08 16:51:17;;;;;;;;;;;;;;;20.75;60.17;99779.28;10413745;28;777;-66
2023/09/08 16:56:12;;;;;;;;;;;;;;;20.76;60.34;99773.91;10413002;28;878;-68
2023/09/08 17:01:08;;;;;;;;;;;;;;;20.78;60.18;99777.31;10412847;28;1961;-68
2023/09/08 17:06:04;;;;;;;;;;;;;;;20.79;60.48;99773.72;10412673;28;864;-68
2023/09/08 17:11:00;;;;;;;;;;;;;;;20.82;60.46;99774.50;10413012;28;802;-68
2023/09/08 17:15:56;;;;;;;;;;;;;;;20.84;60.42;99775.28;10413190;28;806;-68
2023/09/08 17:20:52;;;;;;;;;;;;;;;20.84;60.57;99786.72;10412629;28;1897;-69
2023/09/08 17:25:48;;;;;;;;;;;;;;;20.89;60.38;99781.19;10413044;28;778;-68
2023/09/08 17:30:44;;;;;;;;;;;;;;;20.89;60.52;99781.19;10412437;28;1344;-68
2023/09/08 17:35:40;;;;;;;;;;;;;;;20.89;60.43;99779.38;10411782;28;951;-68
2023/09/08 17:40:36;;;;;;;;;;;;;;;20.90;60.50;99786.38;10410650;28;1914;-69
2023/09/08 17:45:32;;;;;;;;;;;;;;;20.93;60.45;99793.31;10410970;28;948;-68
2023/09/08 17:50:30;;;;;;;;;;;;;;;20.93;60.40;99795.94;10410878;28;753;-68
2023/09/08 17:55:26;;;;;;;;;;;;;;;20.94;60.33;99795.03;10410124;28;773;-70
2023/09/08 18:00:22;;;;;;;;;;;;;;;20.93;60.36;99802.13;10411039;28;1965;-69
2023/09/08 18:05:18;;;;;;;;;;;;;;;20.95;60.47;99807.31;10410353;28;774;-68
2023/09/08 18:10:14;;;;;;;;;;;;;;;20.98;60.43;99804.50;10410745;28;805;-70
2023/09/08 18:15:09;;;;;;;;;;;;;;;21.04;60.13;99811.25;10409978;28;813;-70
2023/09/08 18:20:05;;;;;;;;;;;;;;;21.07;60.05;99813.75;10409681;28;1929;-71
2023/09/08 18:25:01;;;;;;;;;;;;;;;21.09;59.78;99819.78;10409731;28;813;-71
2023/09/08 18:29:57;;;;;;;;;;;;;;;21.10;59.63;99816.22;10410058;28;1337;-71
2023/09/08 18:34:53;;;;;;;;;;;;;;;21.11;59.34;99816.13;10408875;28;904;-70
2023/09/08 18:39:49;;;;;;;;;;;;;;;21.13;59.52;99822.19;10409588;28;1972;-70
2023/09/08 18:44:45;;;;;;;;;;;;;;;21.14;59.27;99829.22;10409418;28;766;-71
2023/09/08 18:49:41;;;;;;;;;;;;;;;21.16;59.35;99835.28;10409412;28;829;-70
2023/09/08 18:54:37;;;;;;;;;;;;;;;21.17;59.21;99834.34;10391276;28;868;-71
2023/09/08 18:59:33;;;;;;;;;;;;;;;21.19;59.12;99832.44;10408354;28;1971;-70
2023/09/08 19:04:29;;;;;;;;;;;;;;;21.20;59.23;99841.28;10408998;28;818;-70
2023/09/08 19:09:24;;;;;;;;;;;;;;;21.22;59.19;99842.03;10408059;28;844;-70
2023/09/08 19:14:23;;;;;;;;;;;;;;;21.21;59.03;99841.19;10442404;27;1210;-71
2023/09/08 19:19:18;;;;;;;;;;;;;;;21.23;59.11;99841.09;10449637;27;1961;-71
2023/09/08 19:24:15;;;;;;;;;;;;;;;21.24;59.04;99841.00;10449930;28;944;-71
2023/09/08 19:29:11;;;;;;;;;;;;;;;21.26;58.84;99837.44;10450039;28;1119;-71
2023/09/08 19:34:07;;;;;;;;;;;;;;;21.27;58.89;99833.81;10450001;27;860;-71
2023/09/08 19:39:03;;;;;;;;;;;;;;;21.28;58.80;99835.56;10456591;27;1914;-70
2023/09/08 19:43:59;;;;;;;;;;;;;;;21.28;58.88;99833.75;10458378;27;934;-71
2023/09/08 19:48:55;;;;;;;;;;;;;;;21.29;58.89;99846.06;10457003;27;1019;-71
2023/09/08 19:53:50;;;;;;;;;;;;;;;21.31;58.72;99841.53;10457419;27;876;-71
2023/09/08 19:58:50;;;;;;;;;;;;;;;21.32;58.67;99842.38;10457180;27;2315;-70
2023/09/08 20:03:46;;;;;;;;;;;;;;;21.32;58.83;99847.69;10457163;27;858;-68
2023/09/08 20:08:42;;;;;;;;;;;;;;;21.32;58.95;99840.56;10456790;27;863;-68
2023/09/08 20:13:38;;;;;;;;;;;;;;;21.33;58.70;99839.66;10456815;27;967;-68
2023/09/08 20:18:34;;;;;;;;;;;;;;;21.34;58.58;99844.00;10456386;27;1885;-68
2023/09/08 20:23:34;;;;;;;;;;;;;;;21.35;58.63;99836.88;10456267;27;789;-68
2023/09/08 20:28:30;;;;;;;;;;;;;;;21.36;58.59;99835.97;10455151;27;1436;-69
2023/09/08 20:33:26;;;;;;;;;;;;;;;21.37;58.71;99832.38;10453302;28;861;-69
2023/09/08 20:38:22;;;;;;;;;;;;;;;21.38;58.82;99842.94;10453207;28;1913;-66
2023/09/08 20:43:21;;;;;;;;;;;;;;;21.27;59.60;99837.31;10452944;28;858;-66
2023/09/08 20:48:18;;;;;;;;;;;;;;;21.19;60.04;99839.56;10452407;27;806;-66
2023/09/08 20:53:13;;;;;;;;;;;;;;;21.14;60.20;99838.94;10452942;28;841;-66
2023/09/08 20:58:09;;;;;;;;;;;;;;;21.12;60.43;99844.34;10452465;28;1945;-66
2023/09/08 21:03:05;;;;;;;;;;;;;;;21.09;60.35;99839.22;10452392;28;945;-66
2023/09/08 21:08:02;;;;;;;;;;;;;;;21.08;60.37;99847.25;10452847;28;797;-66
2023/09/08 21:12:57;;;;;;;;;;;;;;;21.06;60.32;99842.03;10452570;28;900;-66
2023/09/08 21:17:53;;;;;;;;;;;;;;;21.03;60.63;99834.25;10451870;28;1951;-66
2023/09/08 21:22:49;;;;;;;;;;;;;;;20.99;60.82;99841.53;10451758;28;770;-66
2023/09/08 21:27:45;;;;;;;;;;;;;;;20.99;60.62;99843.31;10412085;27;1107159;-66
2023/09/08 21:32:41;;;;;;;;;;;;;;;20.98;60.84;99844.25;10454261;27;969;-66
2023/09/08 21:37:37;;;;;;;;;;;;;;;20.97;60.60;99842.56;10453292;27;1981;-66
2023/09/08 21:42:33;;;;;;;;;;;;;;;20.98;60.54;99844.25;10453081;27;854;-66
2023/09/08 21:47:30;;;;;;;;;;;;;;;20.97;60.72;99846.06;10452899;27;840;-66
2023/09/08 21:52:26;;;;;;;;;;;;;;;20.96;60.80;99839.06;10452792;27;841;-66
2023/09/08 21:57:22;;;;;;;;;;;;;;;20.97;60.94;99839.91;10452955;27;1975;-66
2023/09/08 22:02:17;;;;;;;;;;;;;;;20.96;60.75;99833.75;10452386;27;891;-66
2023/09/08 22:07:13;;;;;;;;;;;;;;;20.95;60.36;99839.97;10452915;27;853;-66
2023/09/08 22:12:09;;;;;;;;;;;;;;;20.94;60.41;99837.44;10451942;27;952;-66
2023/09/08 22:17:05;;;;;;;;;;;;;;;20.93;60.40;99843.66;10452829;27;1944;-66
2023/09/08 22:22:01;;;;;;;;;;;;;;;20.94;60.23;99837.44;10452141;27;862;-66
2023/09/08 22:26:57;;;;;;;;;;;;;;;20.92;60.10;99844.59;10451990;27;862;-66
2023/09/08 22:31:53;;;;;;;;;;;;;;;20.90;60.03;99838.53;10450716;27;1144;-66
2023/09/08 22:36:49;;;;;;;;;;;;;;;20.88;60.04;99845.69;10450932;27;1906;-66
2023/09/08 22:41:45;;;;;;;;;;;;;;;20.85;60.08;99835.25;10450281;27;900;-66
2023/09/08 22:46:40;;;;;;;;;;;;;;;20.82;59.81;99836.28;10450661;27;801;-66
2023/09/08 22:51:36;;;;;;;;;;;;;;;20.79;59.94;99839.94;10450413;27;968;-66
2023/09/08 22:56:32;;;;;;;;;;;;;;;20.78;59.84;99832.13;10450384;27;1094;-66
2023/09/08 23:01:28;;;;;;;;;;;;;;;20.77;59.76;99830.38;10450120;27;2003;-66
2023/09/08 23:06:24;;;;;;;;;;;;;;;20.76;59.71;99832.19;10450282;27;882;-66
2023/09/08 23:11:20;;;;;;;;;;;;;;;20.74;59.67;99831.41;10450465;27;870;-66
2023/09/08 23:16:16;;;;;;;;;;;;;;;20.74;59.55;99828.75;10449806;27;974;-66
2023/09/08 23:21:12;;;;;;;;;;;;;;;20.73;59.76;99832.34;10449662;27;1906;-66
2023/09/08 23:26:07;;;;;;;;;;;;;;;20.72;59.68;99832.41;10449555;28;968;-66
2023/09/08 23:31:03;;;;;;;;;;;;;;;20.70;59.68;99829.03;10449742;28;1319;-67
2023/09/08 23:35:59;;;;;;;;;;;;;;;20.70;59.56;99823.72;10449375;28;929;-66
2023/09/08 23:40:55;;;;;;;;;;;;;;;20.70;59.46;99819.28;10450030;28;1910;-66
2023/09/08 23:45:51;;;;;;;;;;;;;;;20.68;59.61;99821.16;10449870;28;903;-66
2023/09/08 23:50:47;;;;;;;;;;;;;;;20.66;59.52;99820.38;10449211;28;869;-66
2023/09/08 23:55:44;;;;;;;;;;;;;;;20.65;59.37;99810.72;10450488;28;895;-66
